Urb El Mirador de Cupey, Puerto Rico
Current Conditions -  °F | °C
As of 6:56 AM on Sunday 23 Nov 2014 (Local Time) from TJSJ Reporting Station
Scattered Clouds Scattered Clouds  
Wind Chill: 76°   Ceiling: Unl
Heat Index: 76°   Visibility: 10mi
Dew Point: 74°   Wind: 0mph
Humidity: 94%   Direction: NA
Pressure: 30"   Gusts: NA
Location:  18.3754°N, 66.0577°W
Report Text: TJSJ 231056Z 00000KT 10SM FEW028 SCT038 SCT060 24/23 A3000 RMK AO2 SLP157 VCSH SE-S T02440233 $
Loading
Personal Weather Stations






























Interactive Weather Map New forecast layout! Learn more

10-Day Weather Forecast

Advertisements
Track Severe Weather on mobile